Time;durP1;ratioP1;P1;durP2;ratioP2;P2;SDS_P1;SDS_P2;PMS_P1;PMS_P2;Temp;Humidity;BMP_temperature;BMP_pressure;BME280_temperature;BME280_humidity;BME280_pressure;Samples;Min_cycle;Max_cycle;Signal;HPM_P1;HPM_P2
2021/03/11 00:00:57;;;;;;;34.70;23.47;;;;;;;;;;2065049;28;20240;-55
2021/03/11 00:01:57;;;;;;;31.63;23.70;;;;;;;;;;2079537;28;20216;-59
2021/03/11 00:02:57;;;;;;;29.57;20.03;;;;;;;;;;2072775;28;20284;-55
2021/03/11 00:03:57;;;;;;;30.17;21.87;;;;;;;;;;2080523;28;20267;-56
2021/03/11 00:04:58;;;;;;;33.13;24.03;;;;;;;;;;2080423;28;20184;-58
2021/03/11 00:05:58;;;;;;;34.03;24.33;;;;;;;;;;2079559;28;20173;-59
2021/03/11 00:06:58;;;;;;;34.47;24.17;;;;;;;;;;2073692;28;20719;-57
2021/03/11 00:07:58;;;;;;;34.30;23.10;;;;;;;;;;2072844;28;20613;-58
2021/03/11 00:08:59;;;;;;;39.60;25.80;;;;;;;;;;2081228;28;20641;-57
2021/03/11 00:09:59;;;;;;;35.53;24.60;;;;;;;;;;2072503;28;20195;-53
2021/03/11 00:10:59;;;;;;;34.83;24.20;;;;;;;;;;2081746;28;20199;-56
2021/03/11 00:11:59;;;;;;;32.13;24.00;;;;;;;;;;2069154;28;20190;-61
2021/03/11 00:13:00;;;;;;;31.17;23.83;;;;;;;;;;2070405;28;20189;-57
2021/03/11 00:14:00;;;;;;;31.10;22.67;;;;;;;;;;2071877;28;20169;-59
2021/03/11 00:15:01;;;;;;;31.63;23.23;;;;;;;;;;2072365;28;20731;-57
2021/03/11 00:16:01;;;;;;;31.27;22.63;;;;;;;;;;2066465;28;20178;-58
2021/03/11 00:17:03;;;;;;;30.30;21.70;;;;;;;;;;2080709;28;20196;-53
2021/03/11 00:18:06;;;;;;;30.37;21.13;;;;;;;;;;2073339;28;20224;-58
2021/03/11 00:19:07;;;;;;;28.80;21.27;;;;;;;;;;2075876;28;20217;-56
2021/03/11 00:20:07;;;;;;;32.43;22.77;;;;;;;;;;2074513;28;20291;-59
2021/03/11 00:21:08;;;;;;;35.47;24.07;;;;;;;;;;2067171;28;20182;-58
2021/03/11 00:22:08;;;;;;;33.40;23.67;;;;;;;;;;2074353;28;20193;-57
2021/03/11 00:23:08;;;;;;;30.93;24.17;;;;;;;;;;2079626;28;20172;-56
2021/03/11 00:24:09;;;;;;;32.23;22.53;;;;;;;;;;2072532;28;20328;-58
2021/03/11 00:25:10;;;;;;;30.70;21.23;;;;;;;;;;2079929;28;20196;-59
2021/03/11 00:26:11;;;;;;;32.63;21.97;;;;;;;;;;2076573;28;20187;-56
2021/03/11 00:27:11;;;;;;;29.47;21.13;;;;;;;;;;2080379;28;20175;-56
2021/03/11 00:28:11;;;;;;;32.77;22.27;;;;;;;;;;2075469;28;20245;-55
2021/03/11 00:29:12;;;;;;;29.33;21.67;;;;;;;;;;2080589;28;20180;-58
2021/03/11 00:30:13;;;;;;;31.97;22.57;;;;;;;;;;2075452;28;20185;-57
2021/03/11 00:31:13;;;;;;;31.63;22.77;;;;;;;;;;2078090;28;20181;-58
2021/03/11 00:32:13;;;;;;;32.33;22.23;;;;;;;;;;2070409;28;20700;-56
2021/03/11 00:33:14;;;;;;;30.63;22.07;;;;;;;;;;2080587;28;20602;-55
2021/03/11 00:34:14;;;;;;;31.67;21.93;;;;;;;;;;2080086;28;20846;-55
2021/03/11 00:35:14;;;;;;;32.03;23.00;;;;;;;;;;2073337;28;20552;-57
2021/03/11 00:36:14;;;;;;;31.60;23.77;;;;;;;;;;2070646;28;20177;-59
2021/03/11 00:37:15;;;;;;;27.10;20.43;;;;;;;;;;2081516;28;20174;-55
2021/03/11 00:38:15;;;;;;;30.43;23.03;;;;;;;;;;2080235;28;20243;-55
2021/03/11 00:39:16;;;;;;;30.23;21.27;;;;;;;;;;2077012;28;20193;-57
2021/03/11 00:40:17;;;;;;;30.70;21.83;;;;;;;;;;2072142;28;20199;-57
2021/03/11 00:41:17;;;;;;;28.30;21.37;;;;;;;;;;2076324;28;20233;-57
2021/03/11 00:42:18;;;;;;;28.50;20.70;;;;;;;;;;2079539;28;20204;-56
2021/03/11 00:43:18;;;;;;;23.17;17.47;;;;;;;;;;2075009;28;20165;-55
2021/03/11 00:44:18;;;;;;;28.23;21.73;;;;;;;;;;2075879;28;20258;-57
2021/03/11 00:45:19;;;;;;;28.37;22.07;;;;;;;;;;2080382;28;20252;-57
2021/03/11 00:46:21;;;;;;;28.00;20.70;;;;;;;;;;2071040;28;20178;-57
2021/03/11 00:47:21;;;;;;;30.37;21.83;;;;;;;;;;2066793;28;20236;-58
2021/03/11 00:48:21;;;;;;;29.10;21.67;;;;;;;;;;2072626;28;20275;-55
2021/03/11 00:49:22;;;;;;;27.67;20.67;;;;;;;;;;2069340;28;20192;-55
2021/03/11 00:50:22;;;;;;;29.70;20.97;;;;;;;;;;2077867;28;20188;-56
2021/03/11 00:51:23;;;;;;;27.57;20.40;;;;;;;;;;2082516;28;20707;-57
2021/03/11 00:52:23;;;;;;;27.80;20.83;;;;;;;;;;2077274;28;20712;-54
2021/03/11 00:53:24;;;;;;;28.00;19.60;;;;;;;;;;2080031;28;20184;-52
2021/03/11 00:54:24;;;;;;;29.07;19.93;;;;;;;;;;2077801;28;20203;-56
2021/03/11 00:55:24;;;;;;;26.30;19.47;;;;;;;;;;2076228;28;20681;-57
2021/03/11 00:56:26;;;;;;;27.80;20.50;;;;;;;;;;2082691;28;20180;-55
2021/03/11 00:57:27;;;;;;;29.30;20.30;;;;;;;;;;2083475;28;20175;-53
2021/03/11 00:58:27;;;;;;;24.37;19.47;;;;;;;;;;2079964;28;20194;-55
2021/03/11 00:59:27;;;;;;;27.83;20.47;;;;;;;;;;2070456;28;20693;-57
2021/03/11 01:00:28;;;;;;;26.83;20.33;;;;;;;;;;2066143;28;20260;-53
2021/03/11 01:01:35;;;;;;;27.03;19.90;;;;;;;;;;2065923;28;20212;-53
2021/03/11 01:02:37;;;;;;;28.80;20.77;;;;;;;;;;2076941;28;20173;-52
2021/03/11 01:03:38;;;;;;;28.77;21.40;;;;;;;;;;2076191;28;20193;-55
2021/03/11 01:04:38;;;;;;;28.50;20.67;;;;;;;;;;2073867;28;20228;-52
2021/03/11 01:05:39;;;;;;;26.67;19.70;;;;;;;;;;2074806;28;20215;-53
2021/03/11 01:06:49;;;;;;;27.30;19.67;;;;;;;;;;2074177;28;20179;-56
2021/03/11 01:07:52;;;;;;;25.63;20.23;;;;;;;;;;2072570;28;20177;-57
2021/03/11 01:08:52;;;;;;;28.73;19.87;;;;;;;;;;2082200;28;20208;-58
2021/03/11 01:09:52;;;;;;;28.23;21.33;;;;;;;;;;2069146;28;20185;-58
2021/03/11 01:10:53;;;;;;;28.67;20.90;;;;;;;;;;2080562;28;20180;-55
2021/03/11 01:11:53;;;;;;;28.27;19.30;;;;;;;;;;2074067;28;20208;-54
2021/03/11 01:12:53;;;;;;;26.63;20.43;;;;;;;;;;2077071;28;20189;-52
2021/03/11 01:13:54;;;;;;;30.87;21.50;;;;;;;;;;2071671;28;20668;-55
2021/03/11 01:14:54;;;;;;;30.07;20.37;;;;;;;;;;2081011;28;20641;-55
2021/03/11 01:15:54;;;;;;;31.37;22.63;;;;;;;;;;2074650;28;20169;-57
2021/03/11 01:16:54;;;;;;;33.90;22.07;;;;;;;;;;2073953;28;20177;-56
2021/03/11 01:17:55;;;;;;;30.40;21.13;;;;;;;;;;2068962;28;20644;-55
2021/03/11 01:18:55;;;;;;;33.20;23.93;;;;;;;;;;2065254;28;20195;-55
2021/03/11 01:19:55;;;;;;;26.87;21.27;;;;;;;;;;2066169;28;20232;-51
2021/03/11 01:20:56;;;;;;;28.77;21.60;;;;;;;;;;2073047;28;20195;-52
2021/03/11 01:21:56;;;;;;;30.70;21.60;;;;;;;;;;2073079;28;20193;-53
2021/03/11 01:22:56;;;;;;;28.77;20.90;;;;;;;;;;2073559;28;20173;-55
2021/03/11 01:23:58;;;;;;;34.33;24.40;;;;;;;;;;2065793;28;20638;-56
2021/03/11 01:24:58;;;;;;;32.57;23.73;;;;;;;;;;2081149;28;20177;-58
2021/03/11 01:25:58;;;;;;;30.07;22.80;;;;;;;;;;2074100;28;20622;-54
2021/03/11 01:26:58;;;;;;;33.23;23.67;;;;;;;;;;2073842;28;20157;-55
2021/03/11 01:27:58;;;;;;;33.63;23.47;;;;;;;;;;2067020;28;20185;-54
2021/03/11 01:29:00;;;;;;;32.43;24.27;;;;;;;;;;2081512;28;20174;-56
2021/03/11 01:30:01;;;;;;;34.60;24.03;;;;;;;;;;2066473;28;20186;-56
2021/03/11 01:31:01;;;;;;;34.80;24.07;;;;;;;;;;2081677;28;20172;-56
2021/03/11 01:32:01;;;;;;;32.20;22.77;;;;;;;;;;2073178;28;20188;-55
2021/03/11 01:33:02;;;;;;;36.30;24.67;;;;;;;;;;2077498;28;20187;-55
2021/03/11 01:34:02;;;;;;;35.73;24.27;;;;;;;;;;2066572;28;20223;-52
2021/03/11 01:35:03;;;;;;;29.47;21.80;;;;;;;;;;2080871;28;20175;-51
2021/03/11 01:36:06;;;;;;;36.00;25.03;;;;;;;;;;2081081;28;20176;-53
2021/03/11 01:37:06;;;;;;;33.63;23.07;;;;;;;;;;2074978;28;20176;-53
2021/03/11 01:38:06;;;;;;;31.93;22.30;;;;;;;;;;2077109;28;20189;-53
2021/03/11 01:39:07;;;;;;;33.37;24.53;;;;;;;;;;2065940;28;20186;-50
2021/03/11 01:40:08;;;;;;;29.37;21.47;;;;;;;;;;2067837;28;20173;-55
2021/03/11 01:41:08;;;;;;;33.70;23.50;;;;;;;;;;2080785;28;20176;-54
2021/03/11 01:42:08;;;;;;;31.77;22.90;;;;;;;;;;2073746;28;20712;-53
2021/03/11 01:43:08;;;;;;;31.23;21.88;;;;;;;;;;2075019;28;20275;-52
2021/03/11 01:44:09;;;;;;;33.80;23.93;;;;;;;;;;2077335;28;20177;-52
2021/03/11 01:45:09;;;;;;;33.73;24.00;;;;;;;;;;2082093;28;20629;-51
2021/03/11 01:46:10;;;;;;;31.60;23.63;;;;;;;;;;2073920;28;20215;-53
2021/03/11 01:47:10;;;;;;;34.50;23.40;;;;;;;;;;2067066;28;20185;-55
2021/03/11 01:48:10;;;;;;;28.57;22.37;;;;;;;;;;2072907;28;20169;-55
2021/03/11 01:49:10;;;;;;;30.57;22.40;;;;;;;;;;2073938;28;20182;-51
2021/03/11 01:50:11;;;;;;;32.57;22.50;;;;;;;;;;2080402;28;20188;-55
2021/03/11 01:51:11;;;;;;;31.57;22.00;;;;;;;;;;2073163;28;20593;-51
2021/03/11 01:52:12;;;;;;;31.07;21.83;;;;;;;;;;2079674;28;20224;-54
2021/03/11 01:53:12;;;;;;;29.57;23.53;;;;;;;;;;2075086;28;20176;-54
2021/03/11 01:54:12;;;;;;;31.03;22.03;;;;;;;;;;2077289;28;20223;-56
2021/03/11 01:55:13;;;;;;;29.50;21.77;;;;;;;;;;2080111;28;20179;-55
2021/03/11 01:56:13;;;;;;;28.80;21.40;;;;;;;;;;2075138;28;20720;-52
2021/03/11 01:57:14;;;;;;;31.47;21.30;;;;;;;;;;2076453;28;20585;-53
2021/03/11 01:58:14;;;;;;;31.30;23.03;;;;;;;;;;2079130;28;20180;-54
2021/03/11 01:59:15;;;;;;;33.03;22.90;;;;;;;;;;2070956;28;20165;-57
2021/03/11 02:00:15;;;;;;;31.93;21.57;;;;;;;;;;2072837;28;20641;-58
2021/03/11 02:01:15;;;;;;;31.87;21.60;;;;;;;;;;2074909;28;20177;-56
2021/03/11 02:02:17;;;;;;;32.27;21.57;;;;;;;;;;2078406;28;20879;-58
2021/03/11 02:03:17;;;;;;;33.57;23.17;;;;;;;;;;2066357;28;20225;-59
2021/03/11 02:04:17;;;;;;;29.60;21.57;;;;;;;;;;2072680;28;20242;-58
2021/03/11 02:05:18;;;;;;;28.97;21.93;;;;;;;;;;2066046;28;20208;-58
2021/03/11 02:06:18;;;;;;;31.27;23.23;;;;;;;;;;2070513;28;20219;-54
2021/03/11 02:07:18;;;;;;;32.33;21.80;;;;;;;;;;2071886;28;20204;-55
2021/03/11 02:08:19;;;;;;;31.87;21.83;;;;;;;;;;2072842;28;20656;-53
2021/03/11 02:09:19;;;;;;;31.40;23.10;;;;;;;;;;2076048;28;20176;-54
2021/03/11 02:10:22;;;;;;;33.73;22.40;;;;;;;;;;2070991;28;20172;-56
2021/03/11 02:11:25;;;;;;;30.33;21.47;;;;;;;;;;2075577;28;20673;-57
2021/03/11 02:12:28;;;;;;;30.83;21.53;;;;;;;;;;2076412;28;20172;-51
2021/03/11 02:13:32;;;;;;;28.57;21.40;;;;;;;;;;2077073;28;20172;-55
2021/03/11 02:14:48;;;;;;;30.30;22.30;;;;;;;;;;2078130;28;20291;-53
2021/03/11 02:16:08;;;;;;;31.07;21.93;;;;;;;;;;2081409;28;20152;-55
2021/03/11 02:17:09;;;;;;;32.27;22.07;;;;;;;;;;2078003;28;20183;-56
2021/03/11 02:18:13;;;;;;;27.23;20.73;;;;;;;;;;2072030;28;20165;-53
2021/03/11 02:19:33;;;;;;;30.47;20.73;;;;;;;;;;2073173;28;20228;-56
2021/03/11 02:21:02;;;;;;;28.53;20.93;;;;;;;;;;2073540;28;20188;-53
2021/03/11 02:22:07;;;;;;;30.73;20.80;;;;;;;;;;2068171;28;20299;-55
2021/03/11 02:23:07;;;;;;;27.08;19.67;;;;;;;;;;2073905;28;20260;-58
2021/03/11 02:24:13;;;;;;;30.10;21.30;;;;;;;;;;2073424;28;20181;-55
2021/03/11 02:25:18;;;;;;;30.97;22.17;;;;;;;;;;2066102;28;20198;-56
2021/03/11 02:26:18;;;;;;;30.83;20.50;;;;;;;;;;2065807;28;20177;-58
2021/03/11 02:27:22;;;;;;;26.67;20.58;;;;;;;;;;2065433;28;20173;-59
2021/03/11 02:28:25;;;;;;;28.87;19.93;;;;;;;;;;2065865;28;20181;-58
2021/03/11 02:29:25;;;;;;;29.30;20.33;;;;;;;;;;2065349;28;20166;-56
2021/03/11 02:30:25;;;;;;;26.60;19.63;;;;;;;;;;2071926;28;20653;-53
2021/03/11 02:31:27;;;;;;;24.27;18.83;;;;;;;;;;2072856;28;20172;-54
2021/03/11 02:32:27;;;;;;;26.33;20.37;;;;;;;;;;2073596;28;20184;-56
2021/03/11 02:33:30;;;;;;;29.10;20.83;;;;;;;;;;2072851;28;20213;-54
2021/03/11 02:34:32;;;;;;;26.83;18.73;;;;;;;;;;2072951;28;20279;-52
2021/03/11 02:35:33;;;;;;;26.30;19.57;;;;;;;;;;2077554;28;20187;-52
2021/03/11 02:36:34;;;;;;;25.07;19.07;;;;;;;;;;2081570;28;20172;-58
2021/03/11 02:37:41;;;;;;;29.40;19.07;;;;;;;;;;2081534;28;20267;-56
2021/03/11 02:38:43;;;;;;;25.53;18.77;;;;;;;;;;2073351;28;20173;-55
2021/03/11 02:39:49;;;;;;;26.83;19.30;;;;;;;;;;2072248;28;20231;-52
2021/03/11 02:40:50;;;;;;;22.03;18.13;;;;;;;;;;2065468;28;20212;-56
2021/03/11 02:41:51;;;;;;;24.27;18.90;;;;;;;;;;2064765;28;20670;-53
2021/03/11 02:42:53;;;;;;;23.07;18.43;;;;;;;;;;2064632;28;20170;-55
2021/03/11 02:43:53;;;;;;;24.60;19.03;;;;;;;;;;2068742;28;20181;-57
2021/03/11 02:44:53;;;;;;;22.20;18.50;;;;;;;;;;2071944;28;20280;-55
2021/03/11 02:45:55;;;;;;;24.20;16.07;;;;;;;;;;2072146;28;20274;-56
2021/03/11 02:46:56;;;;;;;23.70;17.17;;;;;;;;;;2072890;28;20551;-54
2021/03/11 02:47:58;;;;;;;22.77;17.27;;;;;;;;;;2071396;28;20204;-56
2021/03/11 02:48:59;;;;;;;22.60;17.47;;;;;;;;;;2064209;28;20200;-56
2021/03/11 02:50:00;;;;;;;22.88;17.10;;;;;;;;;;2072794;28;20172;-56
2021/03/11 02:51:01;;;;;;;22.37;17.90;;;;;;;;;;2073197;28;20177;-54
2021/03/11 02:52:02;;;;;;;24.40;17.73;;;;;;;;;;2072626;28;20201;-54
2021/03/11 02:53:05;;;;;;;25.67;17.80;;;;;;;;;;2073305;28;20176;-54
2021/03/11 02:54:05;;;;;;;23.67;17.67;;;;;;;;;;2073255;28;20230;-53
2021/03/11 02:55:06;;;;;;;23.57;18.33;;;;;;;;;;2071279;28;20719;-56
2021/03/11 02:56:07;;;;;;;25.27;17.33;;;;;;;;;;2065258;28;20184;-57
2021/03/11 02:57:08;;;;;;;28.23;18.60;;;;;;;;;;2064466;28;20276;-55
2021/03/11 02:58:09;;;;;;;22.53;17.60;;;;;;;;;;2064691;28;20662;-56
2021/03/11 02:59:10;;;;;;;22.83;16.67;;;;;;;;;;2065000;28;20165;-55
2021/03/11 03:00:10;;;;;;;24.60;18.17;;;;;;;;;;2065115;28;20654;-56
2021/03/11 03:01:14;;;;;;;22.10;17.67;;;;;;;;;;2065100;28;20170;-54
2021/03/11 03:02:14;;;;;;;25.67;18.03;;;;;;;;;;2064082;28;20721;-52
2021/03/11 03:03:15;;;;;;;20.55;16.63;;;;;;;;;;2064438;28;20182;-54
2021/03/11 03:04:16;;;;;;;19.80;16.07;;;;;;;;;;2065158;28;20208;-55
2021/03/11 03:05:18;;;;;;;22.53;15.67;;;;;;;;;;2067985;28;20260;-56
2021/03/11 03:06:18;;;;;;;18.60;16.13;;;;;;;;;;2072197;28;20181;-53
2021/03/11 03:07:19;;;;;;;20.93;16.40;;;;;;;;;;2074233;28;20202;-53
2021/03/11 03:08:20;;;;;;;26.15;17.63;;;;;;;;;;2078059;28;20173;-58
2021/03/11 03:09:20;;;;;;;22.75;17.08;;;;;;;;;;2075478;28;20202;-57
2021/03/11 03:10:22;;;;;;;21.27;17.52;;;;;;;;;;2078220;28;20180;-58
2021/03/11 03:11:23;;;;;;;20.13;16.23;;;;;;;;;;2074715;28;20180;-51
2021/03/11 03:12:23;;;;;;;24.20;17.10;;;;;;;;;;2077649;28;20195;-57
2021/03/11 03:13:24;;;;;;;32.27;18.53;;;;;;;;;;2077950;28;20176;-58
2021/03/11 03:14:25;;;;;;;21.60;17.10;;;;;;;;;;2071629;28;20211;-56
2021/03/11 03:15:25;;;;;;;21.63;17.17;;;;;;;;;;2079644;28;20180;-57
2021/03/11 03:16:26;;;;;;;21.17;17.40;;;;;;;;;;2078053;28;20230;-58
2021/03/11 03:17:26;;;;;;;20.93;16.17;;;;;;;;;;2076941;28;20185;-55
2021/03/11 03:18:29;;;;;;;22.48;16.40;;;;;;;;;;2076628;28;20247;-57
2021/03/11 03:19:29;;;;;;;20.98;17.08;;;;;;;;;;2070615;28;20177;-58
2021/03/11 03:20:29;;;;;;;21.92;16.02;;;;;;;;;;2064752;28;20621;-55
2021/03/11 03:21:30;;;;;;;19.92;15.27;;;;;;;;;;2064197;28;20255;-58
2021/03/11 03:22:30;;;;;;;21.00;15.57;;;;;;;;;;2072448;28;20231;-58
2021/03/11 03:23:31;;;;;;;22.23;16.63;;;;;;;;;;2072303;28;20177;-58
2021/03/11 03:24:32;;;;;;;19.60;16.80;;;;;;;;;;2073069;28;20212;-58
2021/03/11 03:25:32;;;;;;;22.30;16.83;;;;;;;;;;2069235;28;20177;-59
2021/03/11 03:26:32;;;;;;;21.15;16.40;;;;;;;;;;2069621;28;20184;-57
2021/03/11 03:27:33;;;;;;;18.97;16.17;;;;;;;;;;2072957;28;20660;-56
2021/03/11 03:28:33;;;;;;;20.23;15.85;;;;;;;;;;2073520;28;20345;-56
2021/03/11 03:29:34;;;;;;;22.27;17.13;;;;;;;;;;2074589;28;20332;-54
2021/03/11 03:30:34;;;;;;;23.33;16.90;;;;;;;;;;2069292;28;20235;-57
2021/03/11 03:31:35;;;;;;;19.80;16.55;;;;;;;;;;2075249;28;20214;-54
2021/03/11 03:32:36;;;;;;;20.53;16.73;;;;;;;;;;2074605;28;20172;-55
2021/03/11 03:33:36;;;;;;;23.73;17.67;;;;;;;;;;2072036;28;20188;-52
2021/03/11 03:34:37;;;;;;;23.23;16.93;;;;;;;;;;2076053;28;20223;-52
2021/03/11 03:35:37;;;;;;;22.52;15.50;;;;;;;;;;2074546;28;20715;-56
2021/03/11 03:36:38;;;;;;;19.33;14.63;;;;;;;;;;2076455;28;20184;-52
2021/03/11 03:37:39;;;;;;;22.50;17.00;;;;;;;;;;2083116;28;20171;-54
2021/03/11 03:38:39;;;;;;;21.80;16.27;;;;;;;;;;2074875;28;20186;-51
2021/03/11 03:39:40;;;;;;;22.57;17.30;;;;;;;;;;2074374;28;20719;-52
2021/03/11 03:40:40;;;;;;;22.35;17.02;;;;;;;;;;2076703;28;20168;-53
2021/03/11 03:41:42;;;;;;;21.13;16.03;;;;;;;;;;2073026;28;20192;-55
2021/03/11 03:42:45;;;;;;;25.50;16.83;;;;;;;;;;2073629;28;20564;-54
2021/03/11 03:43:45;;;;;;;22.52;17.63;;;;;;;;;;2074168;28;20211;-52
2021/03/11 03:44:47;;;;;;;23.50;18.03;;;;;;;;;;2072050;28;20246;-52
2021/03/11 03:45:49;;;;;;;22.00;16.73;;;;;;;;;;2081443;28;20172;-55
2021/03/11 03:46:50;;;;;;;21.77;17.45;;;;;;;;;;2076569;28;20192;-55
2021/03/11 03:47:51;;;;;;;22.92;18.65;;;;;;;;;;2077610;28;20180;-57
2021/03/11 03:48:53;;;;;;;23.47;17.13;;;;;;;;;;2079398;28;20190;-53
2021/03/11 03:49:53;;;;;;;24.97;18.50;;;;;;;;;;2071983;28;20231;-58
2021/03/11 03:50:54;;;;;;;24.03;17.63;;;;;;;;;;2064523;28;20236;-54
2021/03/11 03:51:55;;;;;;;22.23;16.03;;;;;;;;;;2068637;28;20728;-53
2021/03/11 03:52:56;;;;;;;23.63;17.85;;;;;;;;;;2080224;28;20188;-56
2021/03/11 03:53:57;;;;;;;23.50;17.27;;;;;;;;;;2072710;28;20270;-54
2021/03/11 03:54:58;;;;;;;23.42;17.58;;;;;;;;;;2063914;28;20284;-54
2021/03/11 03:55:59;;;;;;;21.07;15.93;;;;;;;;;;2065175;28;20189;-57
2021/03/11 03:57:18;;;;;;;23.00;17.30;;;;;;;;;;2081455;28;20653;-53
2021/03/11 03:58:19;;;;;;;23.80;18.40;;;;;;;;;;2073234;28;20172;-53
2021/03/11 03:59:25;;;;;;;23.15;17.25;;;;;;;;;;2071960;28;20562;-54
2021/03/11 04:00:25;;;;;;;23.40;17.30;;;;;;;;;;2073934;28;20172;-53
2021/03/11 04:01:29;;;;;;;23.63;18.50;;;;;;;;;;2077131;28;20526;-53
2021/03/11 04:02:29;;;;;;;22.43;18.57;;;;;;;;;;2096765;22;20559;-55
2021/03/11 04:03:31;;;;;;;21.97;17.70;;;;;;;;;;2096662;28;20198;-56
2021/03/11 04:04:35;;;;;;;22.93;18.30;;;;;;;;;;2097608;28;20187;-55
2021/03/11 04:05:35;;;;;;;23.20;17.97;;;;;;;;;;2089074;28;20202;-54
2021/03/11 04:06:36;;;;;;;25.50;19.10;;;;;;;;;;2094456;28;20193;-55
2021/03/11 04:07:37;;;;;;;26.90;19.40;;;;;;;;;;2104144;28;20555;-54
2021/03/11 04:08:39;;;;;;;23.30;17.43;;;;;;;;;;2104430;28;20178;-56
2021/03/11 04:09:40;;;;;;;22.02;17.27;;;;;;;;;;2101697;28;20692;-54
2021/03/11 04:10:41;;;;;;;26.97;18.40;;;;;;;;;;2102556;28;20193;-57
2021/03/11 04:11:42;;;;;;;23.20;16.57;;;;;;;;;;2096707;28;20222;-55
2021/03/11 04:12:43;;;;;;;23.60;17.17;;;;;;;;;;2104440;28;20190;-60
2021/03/11 04:13:44;;;;;;;23.67;18.70;;;;;;;;;;2102425;28;20267;-60
2021/03/11 04:14:44;;;;;;;22.70;17.97;;;;;;;;;;2104947;28;20289;-59
2021/03/11 04:15:45;;;;;;;21.97;17.93;;;;;;;;;;2099912;28;20171;-59
2021/03/11 04:16:46;;;;;;;22.10;16.47;;;;;;;;;;2104060;28;20175;-57
2021/03/11 04:17:46;;;;;;;25.83;18.80;;;;;;;;;;2094019;28;20514;-60
2021/03/11 04:18:47;;;;;;;21.80;17.70;;;;;;;;;;2092348;28;20179;-56
2021/03/11 04:19:48;;;;;;;25.60;18.37;;;;;;;;;;2102235;28;20174;-54
2021/03/11 04:20:48;;;;;;;21.87;18.03;;;;;;;;;;2104324;28;20170;-57
2021/03/11 04:21:49;;;;;;;25.67;17.70;;;;;;;;;;2099245;28;20546;-58
2021/03/11 04:22:49;;;;;;;23.90;18.17;;;;;;;;;;2101255;28;20232;-54
2021/03/11 04:23:49;;;;;;;27.43;18.70;;;;;;;;;;2103004;28;20264;-57
2021/03/11 04:24:50;;;;;;;21.93;17.60;;;;;;;;;;2105670;28;20606;-55
2021/03/11 04:25:51;;;;;;;21.47;18.33;;;;;;;;;;2099117;28;20159;-59
2021/03/11 04:26:51;;;;;;;21.30;18.73;;;;;;;;;;2097523;28;20214;-59
2021/03/11 04:27:51;;;;;;;22.90;17.70;;;;;;;;;;2090632;28;20202;-56
2021/03/11 04:28:52;;;;;;;22.90;16.87;;;;;;;;;;2106454;28;20227;-58
2021/03/11 04:29:53;;;;;;;21.17;17.37;;;;;;;;;;2094199;28;20194;-55
2021/03/11 04:30:53;;;;;;;22.83;18.57;;;;;;;;;;2097086;28;20218;-57
2021/03/11 04:31:53;;;;;;;19.60;16.63;;;;;;;;;;2089375;28;20792;-55
2021/03/11 04:32:54;;;;;;;22.17;17.60;;;;;;;;;;2104949;28;20694;-56
2021/03/11 04:33:55;;;;;;;20.00;16.87;;;;;;;;;;2101634;28;20171;-55
2021/03/11 04:34:55;;;;;;;21.90;17.70;;;;;;;;;;2106877;28;20213;-55
2021/03/11 04:35:55;;;;;;;20.70;16.83;;;;;;;;;;2098162;28;20167;-57
2021/03/11 04:36:56;;;;;;;20.47;16.70;;;;;;;;;;2103212;28;20269;-57
2021/03/11 04:37:56;;;;;;;22.37;18.00;;;;;;;;;;2095060;28;20611;-57
2021/03/11 04:38:57;;;;;;;21.13;16.50;;;;;;;;;;2098257;28;20216;-58
2021/03/11 04:39:57;;;;;;;21.27;16.13;;;;;;;;;;2093408;28;20179;-57
2021/03/11 04:40:58;;;;;;;21.27;16.33;;;;;;;;;;2106564;28;20171;-57
2021/03/11 04:41:58;;;;;;;19.70;16.77;;;;;;;;;;2097592;28;20179;-56
2021/03/11 04:42:59;;;;;;;20.30;15.50;;;;;;;;;;2096110;28;20740;-60
2021/03/11 04:44:00;;;;;;;21.33;16.70;;;;;;;;;;2098142;28;20171;-55
2021/03/11 04:45:01;;;;;;;21.33;16.08;;;;;;;;;;2097692;28;20236;-57
2021/03/11 04:46:02;;;;;;;20.33;16.90;;;;;;;;;;2081569;28;20204;-56
2021/03/11 04:47:02;;;;;;;23.48;17.13;;;;;;;;;;2098424;28;20186;-58
2021/03/11 04:48:02;;;;;;;28.70;15.80;;;;;;;;;;2093296;28;20702;-58
2021/03/11 04:49:03;;;;;;;19.00;16.77;;;;;;;;;;2100691;28;20542;-58
2021/03/11 04:50:05;;;;;;;18.60;15.80;;;;;;;;;;2099381;28;20171;-56
2021/03/11 04:51:05;;;;;;;16.87;15.13;;;;;;;;;;2104056;28;20182;-62
2021/03/11 04:52:07;;;;;;;19.30;14.90;;;;;;;;;;2095196;28;20202;-58
2021/03/11 04:53:08;;;;;;;18.73;14.77;;;;;;;;;;2090132;28;20636;-57
2021/03/11 04:54:08;;;;;;;21.43;16.10;;;;;;;;;;2091820;28;20247;-55
2021/03/11 04:55:09;;;;;;;19.33;16.23;;;;;;;;;;2097057;28;20647;-58
2021/03/11 04:56:10;;;;;;;21.57;16.17;;;;;;;;;;2097264;28;20171;-58
2021/03/11 04:57:10;;;;;;;21.80;17.80;;;;;;;;;;2097389;28;20316;-60
2021/03/11 04:58:12;;;;;;;22.43;17.83;;;;;;;;;;2082648;28;20723;-57
2021/03/11 04:59:13;;;;;;;22.50;17.47;;;;;;;;;;2088140;28;20179;-55
2021/03/11 05:00:15;;;;;;;20.33;16.03;;;;;;;;;;2093110;28;20182;-58
2021/03/11 05:01:19;;;;;;;19.97;17.20;;;;;;;;;;2098425;28;20167;-57
2021/03/11 05:02:19;;;;;;;19.03;16.60;;;;;;;;;;2097263;28;20204;-58
2021/03/11 05:03:20;;;;;;;18.70;16.47;;;;;;;;;;2098549;28;20178;-58
2021/03/11 05:04:21;;;;;;;21.83;16.57;;;;;;;;;;2086099;28;20693;-58
2021/03/11 05:05:30;;;;;;;20.17;16.67;;;;;;;;;;2085341;28;20221;-57
2021/03/11 05:06:30;;;;;;;18.93;15.50;;;;;;;;;;2093740;28;20219;-59
2021/03/11 05:07:30;;;;;;;16.47;13.67;;;;;;;;;;2099636;28;20170;-59
2021/03/11 05:08:31;;;;;;;17.27;14.73;;;;;;;;;;2099168;28;20187;-57
2021/03/11 05:09:31;;;;;;;18.97;14.47;;;;;;;;;;2088758;28;20266;-58
2021/03/11 05:10:32;;;;;;;18.27;14.37;;;;;;;;;;2087547;28;20180;-58
2021/03/11 05:11:32;;;;;;;18.70;15.97;;;;;;;;;;2101632;28;20236;-54
2021/03/11 05:12:32;;;;;;;18.80;15.07;;;;;;;;;;2101976;28;20254;-57
2021/03/11 05:13:32;;;;;;;19.83;15.03;;;;;;;;;;2103214;28;20691;-58
2021/03/11 05:14:33;;;;;;;20.47;15.03;;;;;;;;;;2103336;28;20206;-56
2021/03/11 05:15:33;;;;;;;18.03;15.10;;;;;;;;;;2104452;28;20231;-62
2021/03/11 05:16:33;;;;;;;20.17;16.70;;;;;;;;;;2097047;28;20198;-59
2021/03/11 05:17:34;;;;;;;21.63;15.67;;;;;;;;;;2093886;28;20176;-56
2021/03/11 05:18:34;;;;;;;18.20;16.23;;;;;;;;;;2101700;28;20186;-56
2021/03/11 05:19:35;;;;;;;21.30;15.53;;;;;;;;;;2095643;28;20599;-59
2021/03/11 05:20:35;;;;;;;19.73;15.63;;;;;;;;;;2094999;28;20190;-58
2021/03/11 05:21:36;;;;;;;21.30;16.17;;;;;;;;;;2101572;28;20654;-55
2021/03/11 05:22:36;;;;;;;24.43;17.10;;;;;;;;;;2101256;28;20270;-60
2021/03/11 05:23:36;;;;;;;20.67;15.97;;;;;;;;;;2086012;28;20453;-58
2021/03/11 05:24:37;;;;;;;18.03;15.93;;;;;;;;;;2090799;28;20174;-59
2021/03/11 05:25:37;;;;;;;22.05;17.27;;;;;;;;;;2104727;28;20194;-57
2021/03/11 05:26:37;;;;;;;20.73;16.10;;;;;;;;;;2101731;28;20224;-58
2021/03/11 05:27:38;;;;;;;21.80;16.90;;;;;;;;;;2100624;28;20210;-58
2021/03/11 05:28:38;;;;;;;21.60;17.17;;;;;;;;;;2101863;28;20262;-58
2021/03/11 05:29:39;;;;;;;23.43;17.57;;;;;;;;;;2105438;28;20170;-59
2021/03/11 05:30:39;;;;;;;23.37;16.80;;;;;;;;;;2099906;28;20183;-58
2021/03/11 05:31:39;;;;;;;24.37;17.67;;;;;;;;;;2104547;28;20299;-56
2021/03/11 05:32:40;;;;;;;25.73;19.40;;;;;;;;;;2095913;28;20279;-59
2021/03/11 05:33:40;;;;;;;22.57;16.37;;;;;;;;;;2102502;28;20197;-57
2021/03/11 05:34:41;;;;;;;20.07;16.40;;;;;;;;;;2095893;28;20675;-57
2021/03/11 05:35:41;;;;;;;19.57;16.17;;;;;;;;;;2096781;28;20270;-56
2021/03/11 05:36:42;;;;;;;23.60;17.63;;;;;;;;;;2090325;28;20179;-57
2021/03/11 05:37:42;;;;;;;22.30;17.10;;;;;;;;;;2096200;28;20186;-57
2021/03/11 05:38:43;;;;;;;21.90;17.27;;;;;;;;;;2098451;28;20183;-58
2021/03/11 05:39:43;;;;;;;21.40;16.83;;;;;;;;;;2090383;28;20253;-58
2021/03/11 05:40:44;;;;;;;20.53;14.37;;;;;;;;;;2095848;28;20631;-59
2021/03/11 05:41:44;;;;;;;22.80;17.23;;;;;;;;;;2096405;28;20179;-56
2021/03/11 05:42:45;;;;;;;20.67;16.03;;;;;;;;;;2096593;28;20195;-59
2021/03/11 05:43:45;;;;;;;16.77;15.03;;;;;;;;;;2104003;28;20180;-60
2021/03/11 05:44:46;;;;;;;19.90;16.23;;;;;;;;;;2104581;28;20214;-58
2021/03/11 05:45:46;;;;;;;19.37;15.13;;;;;;;;;;2100540;28;20637;-58
2021/03/11 05:46:47;;;;;;;18.90;15.20;;;;;;;;;;2092159;28;20179;-58
2021/03/11 05:47:48;;;;;;;21.63;16.30;;;;;;;;;;2101757;28;20553;-60
2021/03/11 05:48:49;;;;;;;21.83;16.30;;;;;;;;;;2101043;28;20225;-59
2021/03/11 05:49:49;;;;;;;19.33;15.97;;;;;;;;;;2097884;28;20194;-58
2021/03/11 05:50:50;;;;;;;19.83;15.13;;;;;;;;;;2101050;28;20175;-57
2021/03/11 05:51:51;;;;;;;18.40;15.70;;;;;;;;;;2101985;28;20855;-57
2021/03/11 05:52:52;;;;;;;18.07;15.23;;;;;;;;;;2095887;28;20194;-56
2021/03/11 05:53:52;;;;;;;19.33;16.43;;;;;;;;;;2089798;28;20175;-52
2021/03/11 05:54:52;;;;;;;18.40;15.20;;;;;;;;;;2102126;28;20195;-56
2021/03/11 05:55:53;;;;;;;18.10;15.50;;;;;;;;;;2101613;28;20181;-53